Time;durP1;ratioP1;P1;durP2;ratioP2;P2;SDS_P1;SDS_P2;PMS_P1;PMS_P2;Temp;Humidity;BMP_temperature;BMP_pressure;BME280_temperature;BME280_humidity;BME280_pressure;Samples;Min_cycle;Max_cycle;Signal;HPM_P1;HPM_P2
2022/07/04 00:00:21;;;;;;;3.27;3.17;;;20.20;83.00;;;;;;5133351;27;20175;-73
2022/07/04 00:02:48;;;;;;;3.43;3.23;;;20.20;82.80;;;;;;5134146;27;20171;-72
2022/07/04 00:05:14;;;;;;;3.10;2.80;;;20.10;82.30;;;;;;5132295;27;20183;-73
2022/07/04 00:07:41;;;;;;;3.23;3.07;;;20.10;82.20;;;;;;5119915;27;20455;-73
2022/07/04 00:10:09;;;;;;;3.20;3.10;;;20.10;82.10;;;;;;5111376;28;20620;-73
2022/07/04 00:12:34;;;;;;;3.07;2.97;;;20.10;83.20;;;;;;5113267;28;20909;-73
2022/07/04 00:15:01;;;;;;;3.10;3.00;;;20.10;83.40;;;;;;5126396;27;20417;-78
2022/07/04 00:17:27;;;;;;;3.10;3.00;;;20.00;83.00;;;;;;5131426;27;20228;-73
2022/07/04 00:19:53;;;;;;;3.23;2.90;;;20.00;83.10;;;;;;5110853;28;20426;-73
2022/07/04 00:22:18;;;;;;;2.87;2.77;;;20.00;83.70;;;;;;5125530;27;20230;-73
2022/07/04 00:24:44;;;;;;;3.20;3.00;;;20.00;83.20;;;;;;5132424;27;20195;-73
2022/07/04 00:27:10;;;;;;;3.30;3.10;;;19.90;82.80;;;;;;5131663;27;20193;-73
2022/07/04 00:29:37;;;;;;;3.10;3.00;;;19.90;82.90;;;;;;5132321;27;20260;-73
2022/07/04 00:32:03;;;;;;;3.30;3.00;;;19.90;83.10;;;;;;5133083;27;20894;-77
2022/07/04 00:34:29;;;;;;;2.73;2.63;;;19.90;84.30;;;;;;5131908;27;20183;-73
2022/07/04 00:36:55;;;;;;;3.33;3.13;;;19.90;85.20;;;;;;5132043;27;20428;-73
2022/07/04 00:39:20;;;;;;;3.00;2.90;;;19.80;85.40;;;;;;5131678;27;20516;-73
2022/07/04 00:41:47;;;;;;;3.60;3.30;;;19.80;85.70;;;;;;5133341;27;20611;-73
2022/07/04 00:44:15;;;;;;;3.57;3.27;;;19.80;85.70;;;;;;5131456;27;20657;-73
2022/07/04 00:46:42;;;;;;;3.70;3.50;;;19.80;85.80;;;;;;5133393;27;20411;-73
2022/07/04 00:49:09;;;;;;;3.60;3.40;;;19.70;85.70;;;;;;5115360;27;20425;-74
2022/07/04 00:51:36;;;;;;;3.20;3.10;;;19.70;85.70;;;;;;5113143;28;20445;-73
2022/07/04 00:54:02;;;;;;;3.43;3.20;;;19.70;86.30;;;;;;5110922;28;20453;-79
2022/07/04 00:56:29;;;;;;;3.33;3.03;;;19.70;86.40;;;;;;5110929;28;20437;-74
2022/07/04 00:58:55;;;;;;;3.30;3.10;;;19.70;86.60;;;;;;5112653;28;20164;-73
2022/07/04 01:01:21;;;;;;;3.50;3.27;;;19.70;85.90;;;;;;5123194;27;20420;-73
2022/07/04 01:03:47;;;;;;;3.60;3.40;;;19.70;85.40;;;;;;5119012;27;20226;-73
2022/07/04 01:06:15;;;;;;;3.40;3.20;;;19.70;85.30;;;;;;5111716;28;20410;-73
2022/07/04 01:08:42;;;;;;;3.13;2.93;;;19.70;85.00;;;;;;5112589;28;20462;-73
2022/07/04 01:11:09;;;;;;;3.17;3.07;;;19.80;83.30;;;;;;5111951;28;20486;-73
2022/07/04 01:13:35;;;;;;;3.30;3.10;;;19.80;83.70;;;;;;5111531;28;20466;-73
2022/07/04 01:16:02;;;;;;;3.00;2.90;;;19.80;83.50;;;;;;5111479;28;20912;-73
2022/07/04 01:18:28;;;;;;;3.27;3.17;;;19.80;83.40;;;;;;5110694;28;20502;-73
2022/07/04 01:20:54;;;;;;;3.50;3.20;;;19.80;83.70;;;;;;5112599;28;20418;-73
2022/07/04 01:23:20;;;;;;;3.07;2.93;;;19.70;84.40;;;;;;5111376;28;20215;-73
2022/07/04 01:25:46;;;;;;;3.20;3.00;;;19.70;84.30;;;;;;5132896;28;20507;-73
2022/07/04 01:28:11;;;;;;;3.10;2.80;;;19.60;84.40;;;;;;5132085;27;20704;-73
2022/07/04 01:30:38;;;;;;;3.40;3.20;;;19.50;84.10;;;;;;5130676;28;20425;-73
2022/07/04 01:33:04;;;;;;;2.90;2.80;;;19.50;85.20;;;;;;5133067;28;20250;-75
2022/07/04 01:35:30;;;;;;;3.57;3.47;;;19.40;85.00;;;;;;5132519;28;20407;-73
2022/07/04 01:37:57;;;;;;;3.60;3.40;;;19.40;85.30;;;;;;5119502;28;20752;-73
2022/07/04 01:40:23;;;;;;;3.33;3.20;;;19.30;85.10;;;;;;5112994;28;20410;-73
2022/07/04 01:42:48;;;;;;;3.20;3.10;;;19.30;85.20;;;;;;5116418;28;20930;-73
2022/07/04 01:45:14;;;;;;;3.33;3.13;;;19.20;86.00;;;;;;5121225;27;20195;-73
2022/07/04 01:47:41;;;;;;;3.47;3.17;;;19.20;87.00;;;;;;5130616;27;20175;-73
2022/07/04 01:50:12;;;;;;;3.60;2.80;;;19.10;87.00;;;;;;5115711;28;20631;-77
2022/07/04 01:52:39;;;;;;;3.23;3.03;;;19.10;86.90;;;;;;5115214;28;20397;-73
2022/07/04 01:55:05;;;;;;;3.30;3.20;;;19.00;87.30;;;;;;5116265;28;20397;-73
2022/07/04 01:57:31;;;;;;;3.90;3.50;;;19.00;87.60;;;;;;5113614;28;20417;-73
2022/07/04 02:02:41;;;;;;;3.60;3.40;;;19.00;88.70;;;;;;5116504;28;20160;-73
2022/07/04 02:05:07;;;;;;;3.73;3.53;;;18.90;88.60;;;;;;5115592;28;20778;-77
2022/07/04 02:07:33;;;;;;;3.60;3.40;;;19.00;89.30;;;;;;5115721;28;20230;-73
2022/07/04 02:09:59;;;;;;;3.30;3.20;;;19.00;90.20;;;;;;5116157;28;20409;-73
2022/07/04 02:15:10;;;;;;;5.27;3.80;;;19.10;90.10;;;;;;5134045;27;20195;-78
2022/07/04 02:17:36;;;;;;;3.83;3.63;;;19.10;89.90;;;;;;5131297;27;20429;-73
2022/07/04 02:20:04;;;;;;;3.90;3.70;;;19.20;90.00;;;;;;5134413;27;20435;-73
2022/07/04 02:22:30;;;;;;;3.50;3.20;;;19.20;90.10;;;;;;5134101;27;20477;-73
2022/07/04 02:24:56;;;;;;;3.73;3.43;;;19.20;90.00;;;;;;5135101;27;20512;-73
2022/07/04 02:27:22;;;;;;;5.37;3.50;;;19.20;90.10;;;;;;5119312;27;20441;-73
2022/07/04 02:29:48;;;;;;;3.50;3.20;;;19.20;90.10;;;;;;5136418;27;20908;-73
2022/07/04 02:32:14;;;;;;;3.20;3.00;;;19.20;90.30;;;;;;5134217;27;20186;-74
2022/07/04 02:34:40;;;;;;;4.60;3.30;;;19.20;90.00;;;;;;5135802;27;20413;-73
2022/07/04 02:37:06;;;;;;;4.03;3.20;;;19.20;89.30;;;;;;5135722;27;20653;-73
2022/07/04 02:39:32;;;;;;;3.40;3.30;;;19.20;89.50;;;;;;5133982;27;20462;-72
2022/07/04 02:41:58;;;;;;;4.10;3.90;;;19.20;89.60;;;;;;5125685;27;20429;-72
2022/07/04 02:44:24;;;;;;;3.63;3.43;;;19.20;89.90;;;;;;5114461;28;20449;-73
2022/07/04 02:46:49;;;;;;;3.50;3.20;;;19.10;90.00;;;;;;5114932;28;20175;-73
2022/07/04 02:49:15;;;;;;;4.00;3.53;;;19.10;90.10;;;;;;5113404;28;20482;-73
2022/07/04 02:51:41;;;;;;;3.63;3.30;;;19.10;90.10;;;;;;5113580;28;20208;-73
2022/07/04 02:54:08;;;;;;;4.17;3.90;;;19.10;90.20;;;;;;5113818;28;20217;-73
2022/07/04 02:56:34;;;;;;;3.60;3.40;;;19.10;90.30;;;;;;5125928;27;20513;-73
2022/07/04 02:58:59;;;;;;;3.70;3.50;;;19.10;90.40;;;;;;5134256;27;20859;-73
2022/07/04 03:01:25;;;;;;;5.00;4.20;;;19.10;90.50;;;;;;5122473;27;20228;-72
2022/07/04 03:03:51;;;;;;;4.20;3.90;;;19.10;90.70;;;;;;5123947;27;20760;-72
2022/07/04 03:06:17;;;;;;;3.97;3.77;;;19.10;90.70;;;;;;5134722;27;20171;-72
2022/07/04 03:08:43;;;;;;;4.20;4.00;;;19.10;90.70;;;;;;5133056;27;20562;-72
2022/07/04 03:11:09;;;;;;;3.80;3.57;;;19.10;90.80;;;;;;5133663;27;20790;-71
2022/07/04 03:13:35;;;;;;;3.87;3.57;;;19.10;91.00;;;;;;5134345;27;20183;-71
2022/07/04 03:16:01;;;;;;;4.40;4.10;;;19.00;91.50;;;;;;5116903;27;20405;-72
2022/07/04 03:18:27;;;;;;;5.00;4.60;;;18.90;91.10;;;;;;5121041;27;20530;-72
2022/07/04 03:20:53;;;;;;;4.40;4.00;;;18.90;91.40;;;;;;5114638;28;20172;-72
2022/07/04 03:23:18;;;;;;;4.20;3.90;;;18.80;91.30;;;;;;5111657;28;20654;-72
2022/07/04 03:25:44;;;;;;;4.40;4.00;;;18.70;91.40;;;;;;5135209;27;20586;-72
2022/07/04 03:28:10;;;;;;;4.30;4.00;;;18.70;91.60;;;;;;5134807;27;20179;-71
2022/07/04 03:30:35;;;;;;;5.03;4.60;;;18.60;92.10;;;;;;5132812;27;20542;-72
2022/07/04 03:33:01;;;;;;;5.00;4.70;;;18.60;92.20;;;;;;5133622;27;20282;-72
2022/07/04 03:35:27;;;;;;;5.07;4.67;;;18.60;92.30;;;;;;5134112;27;20167;-72
2022/07/04 03:37:53;;;;;;;4.67;4.47;;;18.60;92.70;;;;;;5127925;27;20179;-72
2022/07/04 03:40:20;;;;;;;5.47;5.07;;;18.50;92.60;;;;;;5113441;28;20179;-72
2022/07/04 03:42:47;;;;;;;4.93;4.63;;;18.40;92.70;;;;;;5113832;28;20889;-72
2022/07/04 03:45:12;;;;;;;5.70;5.10;;;18.30;92.90;;;;;;5115950;27;20773;-75
2022/07/04 03:47:38;;;;;;;4.77;4.47;;;18.20;93.30;;;;;;5112821;28;20574;-72
2022/07/04 03:50:04;;;;;;;4.23;4.03;;;18.10;93.70;;;;;;5114036;28;20180;-72
2022/07/04 03:52:30;;;;;;;5.43;5.03;;;18.10;94.20;;;;;;5120567;27;20656;-72
2022/07/04 03:54:56;;;;;;;4.63;4.40;;;18.10;94.40;;;;;;5134262;27;20492;-72
2022/07/04 03:57:22;;;;;;;6.20;5.33;;;18.10;94.50;;;;;;5132329;27;20193;-71
2022/07/04 03:59:48;;;;;;;4.90;4.57;;;18.10;94.40;;;;;;5134475;27;20174;-72
2022/07/04 04:02:13;;;;;;;5.23;4.73;;;18.10;94.40;;;;;;5132632;27;20258;-74
2022/07/04 04:07:24;;;;;;;5.87;4.80;;;18.10;95.00;;;;;;5130856;27;20448;-72
2022/07/04 04:09:50;;;;;;;4.63;4.10;;;18.10;94.90;;;;;;5134217;27;20451;-72
2022/07/04 04:12:15;;;;;;;5.17;4.70;;;18.10;95.10;;;;;;5133828;27;20182;-74
2022/07/04 04:14:41;;;;;;;5.27;4.97;;;18.10;95.00;;;;;;5130687;27;20179;-72
2022/07/04 04:17:07;;;;;;;4.00;3.70;;;18.10;95.20;;;;;;5130970;27;20175;-72
2022/07/04 04:19:33;;;;;;;5.90;5.60;;;18.20;95.20;;;;;;5112713;28;20618;-71
2022/07/04 04:21:59;;;;;;;4.30;4.00;;;18.20;95.10;;;;;;5131575;27;20276;-72
2022/07/04 04:24:24;;;;;;;3.83;3.53;;;18.20;95.40;;;;;;5133183;27;20210;-72
2022/07/04 04:26:50;;;;;;;6.40;5.97;;;18.20;95.40;;;;;;5133295;27;20178;-72
2022/07/04 04:29:16;;;;;;;4.03;3.83;;;18.30;95.30;;;;;;5133823;27;20175;-72
2022/07/04 04:31:41;;;;;;;5.17;4.77;;;18.30;95.40;;;;;;5133898;27;20193;-72
2022/07/04 04:34:07;;;;;;;6.10;5.80;;;18.30;95.50;;;;;;5134081;27;20228;-72
2022/07/04 04:36:33;;;;;;;6.23;5.70;;;18.40;95.60;;;;;;5132252;27;20182;-72
2022/07/04 04:38:59;;;;;;;4.27;3.97;;;18.40;95.30;;;;;;5134190;27;20177;-72
2022/07/04 04:41:25;;;;;;;4.47;4.07;;;18.40;95.30;;;;;;5133480;27;20177;-72
2022/07/04 04:43:51;;;;;;;6.30;6.00;;;18.50;95.40;;;;;;5133942;27;20199;-72
2022/07/04 04:46:16;;;;;;;4.57;4.37;;;18.50;95.30;;;;;;5122198;27;20912;-73
2022/07/04 04:48:42;;;;;;;6.33;4.90;;;18.60;95.60;;;;;;5115568;27;20515;-72
2022/07/04 04:51:08;;;;;;;5.90;5.00;;;18.60;95.40;;;;;;5119824;27;20179;-72
2022/07/04 04:53:34;;;;;;;3.90;3.60;;;18.60;95.30;;;;;;5112448;28;20183;-72
2022/07/04 04:55:59;;;;;;;6.70;6.27;;;18.60;95.30;;;;;;5118628;27;20223;-72
2022/07/04 04:58:25;;;;;;;5.60;5.10;;;18.70;95.30;;;;;;5120255;27;20280;-72
2022/07/04 05:00:51;;;;;;;3.93;3.63;;;18.70;95.40;;;;;;5113504;27;20171;-72
2022/07/04 05:03:17;;;;;;;7.30;4.77;;;18.70;95.50;;;;;;5129845;27;20213;-75
2022/07/04 05:05:44;;;;;;;5.47;5.17;;;18.70;95.40;;;;;;5132668;27;20198;-72
2022/07/04 05:08:12;;;;;;;4.43;4.10;;;18.80;95.40;;;;;;5133432;27;20775;-72
2022/07/04 05:10:39;;;;;;;4.80;4.40;;;18.80;95.40;;;;;;5124460;27;20433;-72
2022/07/04 05:13:04;;;;;;;7.43;6.93;;;18.90;95.30;;;;;;5124435;28;20423;-72
2022/07/04 05:15:31;;;;;;;5.60;5.13;;;19.00;95.40;;;;;;5132855;27;20409;-72
2022/07/04 05:17:57;;;;;;;7.23;6.13;;;19.00;95.30;;;;;;5121557;28;20520;-72
2022/07/04 05:20:22;;;;;;;6.00;5.50;;;18.90;95.20;;;;;;5112338;28;20948;-72
2022/07/04 05:22:48;;;;;;;7.73;7.10;;;18.70;95.30;;;;;;5122501;28;20215;-72
2022/07/04 05:25:14;;;;;;;6.30;5.83;;;18.60;95.70;;;;;;5124893;28;20448;-73
2022/07/04 05:27:40;;;;;;;8.23;7.20;;;18.70;96.80;;;;;;5096776;28;20345;-72
2022/07/04 05:30:07;;;;;;;6.23;5.43;;;19.00;98.50;;;;;;5092461;28;20456;-72
2022/07/04 05:32:32;;;;;;;6.43;6.03;;;19.30;97.30;;;;;;5106548;28;20573;-72
2022/07/04 05:34:58;;;;;;;8.03;7.43;;;19.60;96.70;;;;;;5124354;28;20424;-75
2022/07/04 05:37:24;;;;;;;5.30;4.90;;;19.90;95.40;;;;;;5132882;28;20461;-73
2022/07/04 05:39:50;;;;;;;7.80;7.23;;;19.90;94.70;;;;;;5119722;28;20259;-70
2022/07/04 05:42:16;;;;;;;8.60;8.00;;;20.10;95.50;;;;;;5112946;28;20488;-73
2022/07/04 05:44:42;;;;;;;7.10;5.63;;;19.80;93.50;;;;;;5115088;28;20203;-68
2022/07/04 05:47:08;;;;;;;8.90;8.20;;;19.60;94.90;;;;;;5133516;28;20413;-68
2022/07/04 05:49:34;;;;;;;6.20;5.63;;;19.50;94.90;;;;;;5131584;28;20175;-68
2022/07/04 05:51:59;;;;;;;6.00;5.40;;;19.50;95.40;;;;;;5133452;28;20560;-67
2022/07/04 05:54:25;;;;;;;6.20;5.70;;;19.10;95.30;;;;;;5131558;28;20261;-68
2022/07/04 05:56:51;;;;;;;8.83;8.20;;;18.90;96.40;;;;;;5122003;28;20179;-67
2022/07/04 05:59:17;;;;;;;7.17;6.67;;;18.80;98.60;;;;;;5116017;28;20191;-67
2022/07/04 06:01:43;;;;;;;8.27;6.63;;;19.10;98.80;;;;;;5122278;28;20172;-68
2022/07/04 06:04:08;;;;;;;4.43;3.80;;;19.30;97.80;;;;;;5114604;28;20460;-68
2022/07/04 06:06:34;;;;;;;6.60;4.67;;;19.70;98.00;;;;;;5121199;28;20182;-67
2022/07/04 06:09:00;;;;;;;7.20;5.97;;;20.00;96.50;;;;;;5129144;28;20900;-67
2022/07/04 06:11:26;;;;;;;5.40;5.00;;;20.20;96.10;;;;;;5101771;28;20188;-67
2022/07/04 06:13:52;;;;;;;6.00;5.40;;;20.40;96.00;;;;;;5127252;27;20902;-67
2022/07/04 06:16:18;;;;;;;6.17;5.57;;;20.60;95.00;;;;;;5115998;28;20272;-68
2022/07/04 06:18:43;;;;;;;7.20;6.50;;;20.60;96.30;;;;;;5123623;28;20189;-69
2022/07/04 06:21:09;;;;;;;6.03;4.70;;;20.80;96.60;;;;;;5126153;28;20179;-68
2022/07/04 06:23:35;;;;;;;6.97;6.30;;;21.00;95.50;;;;;;5124586;28;20258;-68
2022/07/04 06:26:02;;;;;;;6.67;6.07;;;21.00;94.10;;;;;;5119296;28;20931;-68
2022/07/04 06:28:29;;;;;;;4.30;4.00;;;21.00;95.20;;;;;;5127819;27;20432;-68
2022/07/04 06:30:55;;;;;;;8.70;6.40;;;21.00;93.60;;;;;;5118975;27;20446;-68
2022/07/04 06:33:21;;;;;;;6.60;6.10;;;21.00;95.60;;;;;;5118354;27;20417;-68
2022/07/04 06:35:56;;;;;;;5.43;3.93;;;21.00;93.80;;;;;;5128465;27;20416;-68
2022/07/04 06:38:27;;;;;;;6.97;6.47;;;21.10;96.30;;;;;;5120538;27;20773;-68
2022/07/04 06:40:57;;;;;;;5.30;4.17;;;21.30;95.10;;;;;;5136656;27;20429;-68
2022/07/04 06:43:24;;;;;;;4.30;3.90;;;21.40;94.00;;;;;;5131402;27;20433;-68
2022/07/04 06:45:50;;;;;;;3.97;3.50;;;21.60;93.80;;;;;;5128312;27;20947;-68
2022/07/04 06:48:16;;;;;;;4.03;3.60;;;21.60;92.00;;;;;;5122041;27;20417;-67
2022/07/04 06:50:42;;;;;;;7.87;4.30;;;21.60;91.70;;;;;;5136008;27;21039;-67
2022/07/04 06:53:09;;;;;;;6.00;3.60;;;21.50;90.90;;;;;;5121720;27;20457;-68
2022/07/04 06:55:39;;;;;;;5.30;4.60;;;21.40;91.40;;;;;;5115024;28;20164;-68
2022/07/04 06:58:06;;;;;;;6.07;5.73;;;21.20;90.10;;;;;;5115391;28;20960;-68
2022/07/04 07:00:32;;;;;;;4.77;4.37;;;20.90;90.80;;;;;;5114763;28;20425;-68
2022/07/04 07:02:58;;;;;;;4.90;3.60;;;20.90;92.80;;;;;;5115476;28;20896;-68
2022/07/04 07:05:26;;;;;;;5.20;4.60;;;20.90;92.50;;;;;;5115547;27;20795;-70
2022/07/04 07:07:52;;;;;;;6.23;5.03;;;20.90;91.70;;;;;;5122633;27;20521;-67
2022/07/04 07:10:18;;;;;;;5.03;4.53;;;20.90;92.30;;;;;;5130390;27;20970;-67
2022/07/04 07:12:45;;;;;;;5.53;4.83;;;20.90;92.00;;;;;;5112554;28;20667;-68
2022/07/04 07:15:10;;;;;;;7.77;6.97;;;21.00;92.50;;;;;;5118649;27;20417;-67
2022/07/04 07:17:36;;;;;;;3.70;3.30;;;21.10;91.40;;;;;;5113346;28;20412;-67
2022/07/04 07:20:03;;;;;;;8.17;5.30;;;21.10;91.30;;;;;;5115072;27;20417;-66
2022/07/04 07:22:29;;;;;;;3.20;2.90;;;21.20;91.20;;;;;;5112417;28;20227;-67
2022/07/04 07:24:55;;;;;;;3.50;3.20;;;21.20;90.60;;;;;;5112247;28;20506;-67
2022/07/04 07:27:21;;;;;;;5.37;5.07;;;21.30;90.60;;;;;;5114981;28;20171;-67
2022/07/04 07:29:46;;;;;;;3.70;3.50;;;21.40;89.80;;;;;;5114346;28;20451;-67
2022/07/04 07:32:13;;;;;;;3.40;3.10;;;21.40;89.90;;;;;;5106322;27;20635;-67
2022/07/04 07:34:38;;;;;;;3.40;3.20;;;21.50;88.30;;;;;;5107473;27;20187;-66
2022/07/04 07:37:04;;;;;;;3.90;3.70;;;21.50;88.30;;;;;;5124267;27;20926;-66
2022/07/04 07:39:30;;;;;;;4.17;3.03;;;21.60;88.80;;;;;;5133769;27;20249;-66
2022/07/04 07:41:55;;;;;;;4.73;3.70;;;21.70;88.70;;;;;;5129658;27;20215;-66
2022/07/04 07:44:21;;;;;;;3.10;2.90;;;21.80;88.50;;;;;;5114646;28;20662;-66
2022/07/04 07:46:47;;;;;;;4.23;3.30;;;21.90;85.70;;;;;;5114178;27;20182;-67
2022/07/04 07:49:13;;;;;;;3.50;3.20;;;22.00;85.00;;;;;;5114841;28;20263;-66
2022/07/04 07:51:39;;;;;;;3.33;3.20;;;22.10;84.80;;;;;;5116476;27;20262;-66
2022/07/04 07:54:04;;;;;;;3.60;3.20;;;22.10;83.30;;;;;;5117502;27;20188;-67
2022/07/04 07:56:30;;;;;;;2.77;2.57;;;22.20;84.10;;;;;;5113159;28;20433;-67
2022/07/04 07:58:56;;;;;;;2.97;2.77;;;22.30;85.50;;;;;;5114978;27;20236;-66
2022/07/04 08:01:22;;;;;;;3.00;2.70;;;22.40;84.60;;;;;;5113136;27;20195;-67
2022/07/04 08:06:32;;;;;;;3.30;3.00;;;22.70;82.10;;;;;;5099375;28;20479;-68
2022/07/04 08:08:58;;;;;;;3.67;2.93;;;22.80;81.40;;;;;;5094949;27;20429;-68
2022/07/04 08:11:25;;;;;;;4.40;4.20;;;22.80;80.90;;;;;;5098040;28;20430;-66
2022/07/04 08:13:50;;;;;;;2.70;2.60;;;22.90;78.90;;;;;;5108794;27;20427;-66
2022/07/04 08:16:16;;;;;;;2.67;2.57;;;23.00;78.20;;;;;;5096086;28;20480;-68
2022/07/04 08:18:42;;;;;;;5.10;4.90;;;23.10;77.40;;;;;;5099760;28;20187;-67
2022/07/04 08:21:13;;;;;;;2.70;2.50;;;23.20;78.70;;;;;;5096113;28;20438;-67
2022/07/04 08:23:39;;;;;;;4.50;4.30;;;23.30;78.80;;;;;;5091810;28;20224;-67
2022/07/04 08:26:10;;;;;;;4.67;3.23;;;23.40;76.40;;;;;;5093102;28;20419;-67
2022/07/04 08:28:36;;;;;;;4.00;2.87;;;23.60;76.20;;;;;;5092860;28;20456;-67
2022/07/04 08:31:03;;;;;;;3.60;3.30;;;23.60;76.20;;;;;;5093102;28;20414;-67
2022/07/04 08:33:29;;;;;;;3.30;2.77;;;23.70;75.70;;;;;;5092814;28;20180;-68
2022/07/04 08:35:56;;;;;;;3.50;2.30;;;23.80;74.40;;;;;;5092072;28;20989;-67
2022/07/04 08:38:22;;;;;;;2.20;2.10;;;23.90;74.80;;;;;;5092993;28;20164;-67
2022/07/04 08:40:50;;;;;;;3.87;3.67;;;23.90;75.40;;;;;;5092602;28;20509;-67
2022/07/04 08:43:16;;;;;;;4.40;4.10;;;24.10;74.40;;;;;;5094860;28;20261;-67
2022/07/04 08:45:47;;;;;;;4.13;3.60;;;24.10;74.40;;;;;;5110602;28;20442;-67
2022/07/04 08:48:13;;;;;;;3.03;2.80;;;24.30;72.90;;;;;;5111412;28;20469;-67
2022/07/04 08:50:47;;;;;;;2.20;2.10;;;24.30;74.70;;;;;;5094200;28;20877;-67
2022/07/04 08:53:19;;;;;;;3.10;2.90;;;24.50;75.20;;;;;;5113395;28;20752;-66
2022/07/04 08:58:33;;;;;;;2.77;2.60;;;24.80;71.50;;;;;;5108433;28;20460;-68
2022/07/04 09:01:24;;;;;;;4.83;3.40;;;24.90;69.30;;;;;;5058607;28;20478;-67
2022/07/04 09:03:50;;;;;;;2.83;2.70;;;24.90;73.10;;;;;;5112598;28;20765;-66
2022/07/04 09:06:16;;;;;;;5.43;1.97;;;24.90;70.70;;;;;;5113485;28;20417;-67
2022/07/04 09:08:42;;;;;;;2.43;2.30;;;25.10;71.30;;;;;;5112836;28;20402;-67
2022/07/04 09:11:08;;;;;;;3.33;3.03;;;25.20;70.90;;;;;;5110236;28;20513;-67
2022/07/04 09:13:34;;;;;;;3.43;3.13;;;25.30;71.60;;;;;;5112228;28;20202;-67
2022/07/04 09:16:01;;;;;;;3.50;2.73;;;25.50;72.80;;;;;;5113105;28;20869;-67
2022/07/04 09:18:35;;;;;;;4.40;4.00;;;25.60;72.10;;;;;;5111621;28;20774;-67
2022/07/04 09:21:03;;;;;;;2.93;2.67;;;25.70;68.30;;;;;;5113054;28;20812;-67
2022/07/04 09:23:32;;;;;;;2.63;2.53;;;25.80;70.30;;;;;;5112523;28;20465;-67
2022/07/04 09:26:19;;;;;;;3.20;3.00;;;25.90;70.30;;;;;;5113190;28;20474;-67
2022/07/04 09:28:56;;;;;;;4.47;3.70;;;26.00;68.70;;;;;;5111047;28;20424;-67
2022/07/04 09:31:31;;;;;;;3.57;2.90;;;26.10;68.90;;;;;;5112770;28;20908;-67
2022/07/04 09:33:58;;;;;;;3.07;2.87;;;26.20;67.70;;;;;;5112438;28;20424;-67
2022/07/04 09:36:26;;;;;;;2.20;2.10;;;26.20;66.00;;;;;;5112894;28;20770;-66
2022/07/04 09:39:18;;;;;;;2.57;2.37;;;26.30;63.40;;;;;;5112275;28;20503;-66
2022/07/04 09:41:50;;;;;;;2.80;2.20;;;26.30;66.10;;;;;;5111117;28;20425;-66
2022/07/04 09:44:16;;;;;;;2.30;2.20;;;26.30;64.90;;;;;;5112753;28;20942;-66
2022/07/04 09:46:42;;;;;;;3.93;1.90;;;26.30;63.60;;;;;;5111864;28;20471;-66
2022/07/04 09:49:09;;;;;;;2.43;1.90;;;26.30;66.10;;;;;;5111583;28;20440;-66
2022/07/04 09:51:44;;;;;;;2.47;2.37;;;26.40;63.50;;;;;;5112113;28;20277;-67
2022/07/04 09:54:18;;;;;;;2.53;2.30;;;26.40;65.50;;;;;;5112796;28;20521;-66
2022/07/04 09:56:49;;;;;;;2.50;2.40;;;26.50;63.60;;;;;;5110813;28;20417;-66
2022/07/04 09:59:15;;;;;;;2.90;2.50;;;26.60;63.90;;;;;;5111453;28;20432;-67
2022/07/04 10:01:41;;;;;;;2.80;2.60;;;26.60;64.90;;;;;;5103804;28;20430;-66
2022/07/04 10:04:08;;;;;;;4.30;4.10;;;26.60;62.80;;;;;;5096139;28;20265;-68
2022/07/04 10:06:37;;;;;;;2.20;1.60;;;26.70;63.50;;;;;;5096201;28;20410;-70
2022/07/04 10:09:09;;;;;;;1.70;1.70;;;26.80;63.30;;;;;;5096178;28;20413;-66
2022/07/04 10:11:38;;;;;;;3.33;2.63;;;26.80;62.60;;;;;;5095542;28;20422;-70
2022/07/04 10:14:06;;;;;;;2.70;2.53;;;26.90;62.10;;;;;;5094486;28;20430;-66
2022/07/04 10:16:31;;;;;;;4.00;3.90;;;27.00;61.80;;;;;;5095842;28;20418;-66
2022/07/04 10:18:57;;;;;;;2.80;2.70;;;27.10;61.10;;;;;;5093851;28;20410;-66
2022/07/04 10:21:24;;;;;;;3.00;2.80;;;27.20;59.50;;;;;;5060040;28;20184;-66
2022/07/04 10:23:51;;;;;;;4.37;2.70;;;27.20;61.00;;;;;;5094755;28;20277;-66
2022/07/04 10:26:22;;;;;;;3.30;2.47;;;27.30;60.20;;;;;;5095788;28;20456;-66
2022/07/04 10:28:49;;;;;;;2.70;2.60;;;27.30;59.90;;;;;;5104496;28;20428;-66
2022/07/04 10:31:16;;;;;;;3.53;2.77;;;27.20;59.20;;;;;;5114793;28;20485;-67
2022/07/04 10:33:43;;;;;;;2.60;2.40;;;27.20;60.10;;;;;;5115453;28;20458;-67
2022/07/04 10:36:29;;;;;;;2.40;2.30;;;27.30;58.70;;;;;;5115756;28;20906;-67
2022/07/04 10:39:04;;;;;;;2.23;2.13;;;27.40;57.00;;;;;;5113892;28;20547;-67
2022/07/04 10:41:30;;;;;;;2.17;2.03;;;27.20;58.90;;;;;;5115901;28;20413;-67
2022/07/04 10:44:13;;;;;;;2.80;2.20;;;27.30;59.50;;;;;;5115224;28;21243;-67
2022/07/04 10:46:56;;;;;;;2.80;2.60;;;27.30;59.50;;;;;;5115259;28;20497;-67
2022/07/04 10:49:25;;;;;;;2.30;2.20;;;27.40;58.30;;;;;;5115509;28;20406;-67
2022/07/04 10:52:09;;;;;;;3.20;3.00;;;27.40;58.20;;;;;;5113862;28;20429;-68
2022/07/04 10:54:37;;;;;;;4.97;2.27;;;27.50;60.70;;;;;;5115656;28;20397;-65
2022/07/04 10:57:14;;;;;;;3.70;3.40;;;27.60;59.90;;;;;;5115627;28;20406;-66
2022/07/04 10:59:43;;;;;;;2.40;2.30;;;27.70;58.50;;;;;;5113791;28;20417;-67
2022/07/04 11:02:11;;;;;;;2.60;2.50;;;27.90;58.50;;;;;;5115722;28;20414;-66
2022/07/04 11:04:56;;;;;;;2.30;2.20;;;27.90;54.50;;;;;;5115080;28;20975;-67
2022/07/04 11:07:23;;;;;;;2.40;2.27;;;27.90;57.90;;;;;;5115236;28;20401;-67
2022/07/04 11:12:54;;;;;;;2.63;2.43;;;28.00;57.70;;;;;;5101117;28;20421;-67
2022/07/04 11:15:32;;;;;;;2.63;2.47;;;28.00;58.90;;;;;;5113984;28;20470;-67
2022/07/04 11:18:01;;;;;;;2.53;2.43;;;28.00;58.20;;;;;;5114321;28;20778;-67
2022/07/04 11:20:30;;;;;;;2.97;2.77;;;28.00;57.60;;;;;;5114841;28;20905;-66
2022/07/04 11:23:10;;;;;;;2.57;2.37;;;28.00;56.00;;;;;;5114361;28;20455;-66
2022/07/04 11:25:37;;;;;;;2.60;2.40;;;28.10;57.70;;;;;;5115102;28;20428;-66
2022/07/04 11:28:20;;;;;;;2.40;2.30;;;28.00;58.40;;;;;;5112465;28;20449;-66
2022/07/04 11:30:54;;;;;;;2.30;2.10;;;28.00;57.00;;;;;;5114082;28;20437;-66
2022/07/04 11:33:24;;;;;;;2.70;2.60;;;27.90;54.20;;;;;;5114873;28;20927;-66
2022/07/04 11:36:14;;;;;;;3.40;3.20;;;27.80;56.50;;;;;;5114397;28;20398;-66
2022/07/04 11:39:08;;;;;;;4.40;3.60;;;27.80;55.50;;;;;;5114711;28;20456;-70
2022/07/04 11:47:31;;;;;;;2.23;2.13;;;28.30;56.80;;;;;;5114427;28;20421;-66
2022/07/04 11:49:59;;;;;;;2.57;2.43;;;28.40;57.20;;;;;;5112846;28;20455;-66
2022/07/04 11:52:43;;;;;;;3.57;3.37;;;28.30;53.10;;;;;;5114467;28;20418;-66
2022/07/04 11:55:12;;;;;;;3.83;3.53;;;28.10;53.60;;;;;;5114310;28;20452;-66
2022/07/04 11:57:45;;;;;;;3.20;3.10;;;27.90;54.10;;;;;;5113044;28;20446;-66
2022/07/04 12:00:17;;;;;;;1.90;1.80;;;27.90;53.80;;;;;;5114677;28;20475;-66
2022/07/04 12:02:44;;;;;;;1.93;1.83;;;27.80;55.30;;;;;;5112671;28;20390;-66
2022/07/04 12:05:11;;;;;;;1.70;1.60;;;27.80;55.40;;;;;;5113912;28;20809;-67
2022/07/04 12:07:41;;;;;;;4.37;4.07;;;27.90;54.70;;;;;;5112735;28;20869;-67
2022/07/04 12:10:12;;;;;;;3.20;3.10;;;27.90;51.10;;;;;;5114063;28;20477;-67
2022/07/04 12:12:57;;;;;;;3.13;3.03;;;27.80;52.80;;;;;;5114128;28;20409;-67
2022/07/04 12:15:26;;;;;;;2.60;2.43;;;27.90;52.20;;;;;;5113744;28;20417;-67
2022/07/04 12:17:54;;;;;;;2.40;2.30;;;27.90;53.40;;;;;;5113253;28;20905;-67
2022/07/04 12:20:24;;;;;;;1.70;1.60;;;27.80;52.60;;;;;;5114237;28;20414;-67
2022/07/04 12:22:50;;;;;;;2.77;2.43;;;27.70;53.30;;;;;;5112864;28;20449;-67
2022/07/04 12:25:37;;;;;;;2.50;2.40;;;27.60;54.20;;;;;;5111895;28;20465;-67
2022/07/04 12:28:07;;;;;;;3.37;3.27;;;27.50;55.20;;;;;;5111855;28;20676;-67
2022/07/04 12:30:38;;;;;;;2.40;2.20;;;27.60;55.50;;;;;;5113895;28;20539;-67
2022/07/04 12:33:06;;;;;;;3.00;2.80;;;27.70;55.70;;;;;;5111940;28;20421;-67
2022/07/04 12:35:34;;;;;;;2.33;2.23;;;27.60;55.70;;;;;;5112478;28;20745;-67
2022/07/04 12:38:11;;;;;;;1.77;1.77;;;27.70;55.70;;;;;;5111779;28;20928;-67
2022/07/04 12:40:53;;;;;;;2.80;2.70;;;27.90;54.90;;;;;;5112431;28;20418;-67
2022/07/04 12:43:20;;;;;;;3.57;3.47;;;28.00;56.10;;;;;;5111019;28;20456;-66
2022/07/04 12:45:51;;;;;;;2.20;2.10;;;28.00;54.50;;;;;;5111392;28;20417;-67
2022/07/04 12:48:19;;;;;;;2.30;2.20;;;28.10;55.20;;;;;;5113656;28;20406;-67
2022/07/04 12:50:45;;;;;;;2.07;1.97;;;28.20;55.20;;;;;;5112471;28;20926;-70
2022/07/04 12:53:11;;;;;;;2.10;2.00;;;28.10;54.50;;;;;;5112171;28;20409;-67
2022/07/04 12:55:38;;;;;;;2.20;2.10;;;28.00;52.80;;;;;;5113378;28;20416;-66
2022/07/04 12:58:04;;;;;;;2.67;2.53;;;27.90;52.00;;;;;;5111533;28;20494;-67
2022/07/04 13:00:30;;;;;;;3.00;2.80;;;27.80;53.20;;;;;;5111081;28;20421;-67
2022/07/04 13:02:56;;;;;;;3.13;2.83;;;27.70;54.90;;;;;;5112406;28;20413;-67
2022/07/04 13:05:22;;;;;;;3.53;2.57;;;27.60;55.90;;;;;;5113192;28;20199;-65
2022/07/04 13:07:47;;;;;;;3.30;3.13;;;27.70;56.20;;;;;;5112639;28;20630;-66
2022/07/04 13:10:13;;;;;;;3.00;2.80;;;27.70;54.70;;;;;;5113201;28;20504;-66
2022/07/04 13:12:39;;;;;;;2.70;2.60;;;27.70;54.80;;;;;;5113223;28;20220;-66